Terminal Aerodrome Forecast
Issued by NWS Shreveport, LA

Home | Current Version | Previous Version | Text Only | Print | Product List | Glossary On
Versions: 1 2 3 4 5 6 7 8 9 10 11 12 13 14 15 16 17 18
000
FTUS44 KSHV 270500
TAFLFK
TAF
KLFK 270525Z 2706/2806 02005KT P6SM BKN120
     FM271600 06010KT P6SM SCT040 OVC080
     FM280200 07006KT P6SM SCT100=

USA.gov is the U.S. government's official web portal to all federal, state and local government web resources and services.